sensor_id;sensor_type;location;lat;lon;timestamp;P1;durP1;ratioP1;P2;durP2;ratioP2
45909;SDS011;31622;55.416;37.840;2023-05-24T00:00:40;5.95;;;3.75;;
45909;SDS011;31622;55.416;37.840;2023-05-24T00:03:06;6.70;;;4.03;;
45909;SDS011;31622;55.416;37.840;2023-05-24T00:05:32;5.65;;;3.60;;
45909;SDS011;31622;55.416;37.840;2023-05-24T00:08:02;8.10;;;3.85;;
45909;SDS011;31622;55.416;37.840;2023-05-24T00:10:28;6.78;;;3.97;;
45909;SDS011;31622;55.416;37.840;2023-05-24T00:12:54;4.72;;;3.55;;
45909;SDS011;31622;55.416;37.840;2023-05-24T00:15:19;6.15;;;3.60;;
45909;SDS011;31622;55.416;37.840;2023-05-24T00:17:45;6.25;;;3.63;;
45909;SDS011;31622;55.416;37.840;2023-05-24T00:20:11;5.88;;;4.10;;
45909;SDS011;31622;55.416;37.840;2023-05-24T00:22:38;5.85;;;3.38;;
45909;SDS011;31622;55.416;37.840;2023-05-24T00:25:05;5.53;;;3.42;;
45909;SDS011;31622;55.416;37.840;2023-05-24T00:27:31;4.85;;;3.15;;
45909;SDS011;31622;55.416;37.840;2023-05-24T00:29:58;6.22;;;3.80;;
45909;SDS011;31622;55.416;37.840;2023-05-24T00:32:24;5.30;;;3.58;;
45909;SDS011;31622;55.416;37.840;2023-05-24T00:34:49;5.63;;;3.00;;
45909;SDS011;31622;55.416;37.840;2023-05-24T00:37:15;6.35;;;2.95;;
45909;SDS011;31622;55.416;37.840;2023-05-24T00:39:42;4.85;;;3.42;;
45909;SDS011;31622;55.416;37.840;2023-05-24T00:42:08;5.53;;;3.30;;
45909;SDS011;31622;55.416;37.840;2023-05-24T00:44:34;6.53;;;3.30;;
45909;SDS011;31622;55.416;37.840;2023-05-24T00:47:00;5.10;;;3.20;;
45909;SDS011;31622;55.416;37.840;2023-05-24T00:49:26;5.80;;;3.38;;
45909;SDS011;31622;55.416;37.840;2023-05-24T00:51:52;5.35;;;3.17;;
45909;SDS011;31622;55.416;37.840;2023-05-24T00:54:18;5.25;;;3.25;;
45909;SDS011;31622;55.416;37.840;2023-05-24T00:56:44;5.38;;;2.97;;
45909;SDS011;31622;55.416;37.840;2023-05-24T00:59:10;4.57;;;3.35;;
45909;SDS011;31622;55.416;37.840;2023-05-24T01:01:37;5.45;;;3.15;;
45909;SDS011;31622;55.416;37.840;2023-05-24T01:04:02;4.82;;;3.30;;
45909;SDS011;31622;55.416;37.840;2023-05-24T01:06:30;6.53;;;3.20;;
45909;SDS011;31622;55.416;37.840;2023-05-24T01:09:08;6.07;;;2.85;;
45909;SDS011;31622;55.416;37.840;2023-05-24T01:17:20;5.25;;;3.08;;
45909;SDS011;31622;55.416;37.840;2023-05-24T01:27:50;5.65;;;3.35;;
45909;SDS011;31622;55.416;37.840;2023-05-24T01:30:16;6.93;;;3.38;;
45909;SDS011;31622;55.416;37.840;2023-05-24T01:32:42;6.22;;;3.80;;
45909;SDS011;31622;55.416;37.840;2023-05-24T01:35:08;4.47;;;3.30;;
45909;SDS011;31622;55.416;37.840;2023-05-24T01:37:34;7.50;;;3.20;;
45909;SDS011;31622;55.416;37.840;2023-05-24T01:40:00;5.25;;;3.28;;
45909;SDS011;31622;55.416;37.840;2023-05-24T01:42:27;6.80;;;3.08;;
45909;SDS011;31622;55.416;37.840;2023-05-24T01:48:07;5.53;;;3.17;;
45909;SDS011;31622;55.416;37.840;2023-05-24T01:51:03;4.97;;;3.47;;
45909;SDS011;31622;55.416;37.840;2023-05-24T01:53:34;5.00;;;3.08;;
45909;SDS011;31622;55.416;37.840;2023-05-24T01:56:05;6.75;;;3.50;;
45909;SDS011;31622;55.416;37.840;2023-05-24T01:58:32;5.35;;;3.47;;
45909;SDS011;31622;55.416;37.840;2023-05-24T02:00:58;6.63;;;3.22;;
45909;SDS011;31622;55.416;37.840;2023-05-24T02:03:24;5.30;;;3.53;;
45909;SDS011;31622;55.416;37.840;2023-05-24T02:05:50;7.18;;;3.20;;
45909;SDS011;31622;55.416;37.840;2023-05-24T02:08:15;5.40;;;3.15;;
45909;SDS011;31622;55.416;37.840;2023-05-24T02:10:41;6.05;;;3.28;;
45909;SDS011;31622;55.416;37.840;2023-05-24T02:13:07;9.85;;;3.50;;
45909;SDS011;31622;55.416;37.840;2023-05-24T02:15:33;5.32;;;3.20;;
45909;SDS011;31622;55.416;37.840;2023-05-24T02:18:02;6.85;;;3.50;;
45909;SDS011;31622;55.416;37.840;2023-05-24T02:20:28;4.03;;;2.97;;
45909;SDS011;31622;55.416;37.840;2023-05-24T02:23:01;6.93;;;3.25;;
45909;SDS011;31622;55.416;37.840;2023-05-24T02:25:28;4.93;;;3.33;;
45909;SDS011;31622;55.416;37.840;2023-05-24T02:27:56;4.95;;;3.17;;
45909;SDS011;31622;55.416;37.840;2023-05-24T02:30:22;5.50;;;3.20;;
45909;SDS011;31622;55.416;37.840;2023-05-24T02:32:48;4.10;;;3.00;;
45909;SDS011;31622;55.416;37.840;2023-05-24T02:35:14;6.85;;;3.28;;
45909;SDS011;31622;55.416;37.840;2023-05-24T02:37:39;4.93;;;3.40;;
45909;SDS011;31622;55.416;37.840;2023-05-24T02:40:05;6.15;;;3.28;;
45909;SDS011;31622;55.416;37.840;2023-05-24T02:42:32;5.90;;;3.00;;
45909;SDS011;31622;55.416;37.840;2023-05-24T02:44:57;8.23;;;3.25;;
45909;SDS011;31622;55.416;37.840;2023-05-24T02:47:23;5.10;;;3.55;;
45909;SDS011;31622;55.416;37.840;2023-05-24T02:49:51;7.85;;;3.60;;
45909;SDS011;31622;55.416;37.840;2023-05-24T02:52:18;13.35;;;3.78;;
45909;SDS011;31622;55.416;37.840;2023-05-24T02:54:46;5.18;;;3.20;;
45909;SDS011;31622;55.416;37.840;2023-05-24T02:57:12;5.45;;;3.63;;
45909;SDS011;31622;55.416;37.840;2023-05-24T02:59:41;5.78;;;3.45;;
45909;SDS011;31622;55.416;37.840;2023-05-24T03:02:07;8.75;;;3.40;;
45909;SDS011;31622;55.416;37.840;2023-05-24T03:04:33;6.88;;;3.58;;
45909;SDS011;31622;55.416;37.840;2023-05-24T03:06:59;10.27;;;3.88;;
45909;SDS011;31622;55.416;37.840;2023-05-24T03:09:25;5.00;;;3.40;;
45909;SDS011;31622;55.416;37.840;2023-05-24T03:11:52;6.32;;;3.10;;
45909;SDS011;31622;55.416;37.840;2023-05-24T03:14:19;6.38;;;3.67;;
45909;SDS011;31622;55.416;37.840;2023-05-24T03:16:47;5.85;;;3.38;;
45909;SDS011;31622;55.416;37.840;2023-05-24T03:19:13;5.47;;;3.17;;
45909;SDS011;31622;55.416;37.840;2023-05-24T03:21:41;6.25;;;3.40;;
45909;SDS011;31622;55.416;37.840;2023-05-24T03:24:07;5.60;;;3.20;;
45909;SDS011;31622;55.416;37.840;2023-05-24T03:26:34;7.35;;;3.30;;
45909;SDS011;31622;55.416;37.840;2023-05-24T03:29:00;6.38;;;3.67;;
45909;SDS011;31622;55.416;37.840;2023-05-24T03:31:33;7.40;;;3.78;;
45909;SDS011;31622;55.416;37.840;2023-05-24T03:33:59;6.63;;;4.70;;
45909;SDS011;31622;55.416;37.840;2023-05-24T03:36:27;6.90;;;4.72;;
45909;SDS011;31622;55.416;37.840;2023-05-24T03:38:53;7.70;;;4.63;;
45909;SDS011;31622;55.416;37.840;2023-05-24T03:41:22;10.23;;;7.75;;
45909;SDS011;31622;55.416;37.840;2023-05-24T03:43:49;7.28;;;4.15;;
45909;SDS011;31622;55.416;37.840;2023-05-24T03:46:16;10.43;;;4.43;;
45909;SDS011;31622;55.416;37.840;2023-05-24T03:48:42;5.45;;;3.72;;
45909;SDS011;31622;55.416;37.840;2023-05-24T03:51:08;11.18;;;5.57;;
45909;SDS011;31622;55.416;37.840;2023-05-24T03:53:34;7.82;;;4.30;;
45909;SDS011;31622;55.416;37.840;2023-05-24T03:55:59;6.75;;;4.07;;
45909;SDS011;31622;55.416;37.840;2023-05-24T03:58:25;7.15;;;3.60;;
45909;SDS011;31622;55.416;37.840;2023-05-24T04:00:51;5.93;;;3.33;;
45909;SDS011;31622;55.416;37.840;2023-05-24T04:03:17;5.65;;;3.80;;
45909;SDS011;31622;55.416;37.840;2023-05-24T04:05:45;4.78;;;3.50;;
45909;SDS011;31622;55.416;37.840;2023-05-24T04:08:11;5.82;;;3.65;;
45909;SDS011;31622;55.416;37.840;2023-05-24T04:10:39;8.18;;;3.78;;
45909;SDS011;31622;55.416;37.840;2023-05-24T04:13:09;6.95;;;3.40;;
45909;SDS011;31622;55.416;37.840;2023-05-24T04:15:35;8.43;;;3.70;;
45909;SDS011;31622;55.416;37.840;2023-05-24T04:18:03;5.85;;;3.83;;
45909;SDS011;31622;55.416;37.840;2023-05-24T04:20:29;5.70;;;3.75;;
45909;SDS011;31622;55.416;37.840;2023-05-24T04:22:55;7.53;;;4.15;;
45909;SDS011;31622;55.416;37.840;2023-05-24T04:25:20;7.97;;;3.42;;
45909;SDS011;31622;55.416;37.840;2023-05-24T04:27:47;5.50;;;3.80;;
45909;SDS011;31622;55.416;37.840;2023-05-24T04:30:13;6.30;;;3.00;;
45909;SDS011;31622;55.416;37.840;2023-05-24T04:32:40;5.47;;;3.63;;
45909;SDS011;31622;55.416;37.840;2023-05-24T04:35:12;7.22;;;3.90;;
45909;SDS011;31622;55.416;37.840;2023-05-24T04:37:38;6.78;;;3.67;;
45909;SDS011;31622;55.416;37.840;2023-05-24T04:40:07;4.57;;;3.30;;
45909;SDS011;31622;55.416;37.840;2023-05-24T04:42:33;8.88;;;3.83;;
45909;SDS011;31622;55.416;37.840;2023-05-24T04:44:59;5.55;;;3.85;;
45909;SDS011;31622;55.416;37.840;2023-05-24T04:47:25;6.82;;;4.38;;
45909;SDS011;31622;55.416;37.840;2023-05-24T04:49:51;15.93;;;7.50;;
45909;SDS011;31622;55.416;37.840;2023-05-24T04:52:17;19.48;;;8.07;;
45909;SDS011;31622;55.416;37.840;2023-05-24T04:54:43;12.73;;;6.47;;
45909;SDS011;31622;55.416;37.840;2023-05-24T04:57:09;13.25;;;6.82;;
45909;SDS011;31622;55.416;37.840;2023-05-24T04:59:35;11.60;;;6.63;;
45909;SDS011;31622;55.416;37.840;2023-05-24T05:02:00;10.52;;;6.53;;
45909;SDS011;31622;55.416;37.840;2023-05-24T05:04:26;15.27;;;7.30;;
45909;SDS011;31622;55.416;37.840;2023-05-24T05:06:52;11.57;;;6.90;;
45909;SDS011;31622;55.416;37.840;2023-05-24T05:09:19;9.95;;;6.72;;
45909;SDS011;31622;55.416;37.840;2023-05-24T05:11:45;11.25;;;6.95;;
45909;SDS011;31622;55.416;37.840;2023-05-24T05:14:11;9.45;;;6.75;;
45909;SDS011;31622;55.416;37.840;2023-05-24T05:16:37;13.07;;;7.97;;
45909;SDS011;31622;55.416;37.840;2023-05-24T05:19:03;8.60;;;7.32;;
45909;SDS011;31622;55.416;37.840;2023-05-24T05:21:29;9.90;;;7.07;;
45909;SDS011;31622;55.416;37.840;2023-05-24T05:23:57;11.65;;;6.40;;
45909;SDS011;31622;55.416;37.840;2023-05-24T05:26:26;8.73;;;6.00;;
45909;SDS011;31622;55.416;37.840;2023-05-24T05:28:52;10.30;;;5.68;;
45909;SDS011;31622;55.416;37.840;2023-05-24T05:31:23;9.30;;;5.40;;
45909;SDS011;31622;55.416;37.840;2023-05-24T05:33:49;8.27;;;5.53;;
45909;SDS011;31622;55.416;37.840;2023-05-24T05:36:15;13.40;;;5.50;;
45909;SDS011;31622;55.416;37.840;2023-05-24T05:38:41;11.45;;;5.90;;
45909;SDS011;31622;55.416;37.840;2023-05-24T05:41:07;11.20;;;5.30;;
45909;SDS011;31622;55.416;37.840;2023-05-24T05:43:32;9.38;;;5.38;;
45909;SDS011;31622;55.416;37.840;2023-05-24T05:45:58;15.55;;;5.22;;
45909;SDS011;31622;55.416;37.840;2023-05-24T05:48:25;8.35;;;4.90;;
45909;SDS011;31622;55.416;37.840;2023-05-24T05:50:51;11.35;;;5.80;;
45909;SDS011;31622;55.416;37.840;2023-05-24T05:53:17;7.15;;;5.03;;
45909;SDS011;31622;55.416;37.840;2023-05-24T05:55:42;7.95;;;4.90;;
45909;SDS011;31622;55.416;37.840;2023-05-24T05:58:08;9.65;;;4.60;;
45909;SDS011;31622;55.416;37.840;2023-05-24T06:00:34;8.77;;;4.90;;
45909;SDS011;31622;55.416;37.840;2023-05-24T06:02:59;8.75;;;4.75;;
45909;SDS011;31622;55.416;37.840;2023-05-24T06:05:25;7.47;;;4.28;;
45909;SDS011;31622;55.416;37.840;2023-05-24T06:07:51;5.38;;;4.35;;
45909;SDS011;31622;55.416;37.840;2023-05-24T06:10:17;10.00;;;3.88;;
45909;SDS011;31622;55.416;37.840;2023-05-24T06:12:42;7.95;;;4.13;;
45909;SDS011;31622;55.416;37.840;2023-05-24T06:15:08;6.63;;;3.83;;
45909;SDS011;31622;55.416;37.840;2023-05-24T06:17:35;14.07;;;4.60;;
45909;SDS011;31622;55.416;37.840;2023-05-24T06:20:02;18.80;;;4.40;;
45909;SDS011;31622;55.416;37.840;2023-05-24T06:22:32;11.05;;;3.60;;
45909;SDS011;31622;55.416;37.840;2023-05-24T06:24:57;9.63;;;3.80;;
45909;SDS011;31622;55.416;37.840;2023-05-24T06:27:23;6.97;;;3.88;;
45909;SDS011;31622;55.416;37.840;2023-05-24T06:29:49;11.00;;;4.07;;
45909;SDS011;31622;55.416;37.840;2023-05-24T06:32:15;8.07;;;4.00;;
45909;SDS011;31622;55.416;37.840;2023-05-24T06:34:40;6.78;;;3.78;;
45909;SDS011;31622;55.416;37.840;2023-05-24T06:37:07;9.07;;;4.00;;
45909;SDS011;31622;55.416;37.840;2023-05-24T06:39:34;6.88;;;3.70;;
45909;SDS011;31622;55.416;37.840;2023-05-24T06:42:01;9.65;;;4.03;;
45909;SDS011;31622;55.416;37.840;2023-05-24T06:44:34;9.35;;;4.05;;
45909;SDS011;31622;55.416;37.840;2023-05-24T06:47:00;7.80;;;3.92;;
45909;SDS011;31622;55.416;37.840;2023-05-24T06:49:26;8.25;;;4.60;;
45909;SDS011;31622;55.416;37.840;2023-05-24T06:51:52;6.35;;;3.65;;
45909;SDS011;31622;55.416;37.840;2023-05-24T06:54:18;6.93;;;4.25;;
45909;SDS011;31622;55.416;37.840;2023-05-24T06:56:44;8.68;;;4.20;;
45909;SDS011;31622;55.416;37.840;2023-05-24T06:59:09;8.05;;;3.97;;
45909;SDS011;31622;55.416;37.840;2023-05-24T07:01:35;7.68;;;3.60;;
45909;SDS011;31622;55.416;37.840;2023-05-24T07:04:04;9.02;;;3.40;;
45909;SDS011;31622;55.416;37.840;2023-05-24T07:06:30;5.05;;;3.70;;
45909;SDS011;31622;55.416;37.840;2023-05-24T07:08:57;7.90;;;4.03;;
45909;SDS011;31622;55.416;37.840;2023-05-24T07:11:23;7.05;;;4.00;;
45909;SDS011;31622;55.416;37.840;2023-05-24T07:13:49;9.80;;;4.82;;
45909;SDS011;31622;55.416;37.840;2023-05-24T07:16:15;13.30;;;5.95;;
45909;SDS011;31622;55.416;37.840;2023-05-24T07:18:40;20.80;;;12.32;;
45909;SDS011;31622;55.416;37.840;2023-05-24T07:21:06;70.72;;;53.15;;
45909;SDS011;31622;55.416;37.840;2023-05-24T07:23:32;200.32;;;175.10;;
45909;SDS011;31622;55.416;37.840;2023-05-24T07:25:58;201.75;;;180.40;;
45909;SDS011;31622;55.416;37.840;2023-05-24T07:28:24;254.07;;;227.50;;
45909;SDS011;31622;55.416;37.840;2023-05-24T07:30:50;268.88;;;241.20;;
45909;SDS011;31622;55.416;37.840;2023-05-24T07:33:16;227.90;;;203.98;;
45909;SDS011;31622;55.416;37.840;2023-05-24T07:35:41;211.85;;;189.77;;
45909;SDS011;31622;55.416;37.840;2023-05-24T07:38:07;96.28;;;85.95;;
45909;SDS011;31622;55.416;37.840;2023-05-24T07:40:33;81.47;;;72.47;;
45909;SDS011;31622;55.416;37.840;2023-05-24T07:42:59;102.85;;;91.78;;
45909;SDS011;31622;55.416;37.840;2023-05-24T07:45:25;89.72;;;80.13;;
45909;SDS011;31622;55.416;37.840;2023-05-24T07:47:50;84.50;;;75.15;;
45909;SDS011;31622;55.416;37.840;2023-05-24T07:50:16;53.17;;;47.40;;
45909;SDS011;31622;55.416;37.840;2023-05-24T07:52:42;66.75;;;59.45;;
45909;SDS011;31622;55.416;37.840;2023-05-24T07:55:09;70.40;;;62.90;;
45909;SDS011;31622;55.416;37.840;2023-05-24T07:57:35;49.33;;;42.90;;
45909;SDS011;31622;55.416;37.840;2023-05-24T08:00:01;43.42;;;36.72;;
45909;SDS011;31622;55.416;37.840;2023-05-24T08:02:36;36.78;;;32.55;;
45909;SDS011;31622;55.416;37.840;2023-05-24T08:05:02;44.95;;;39.28;;
45909;SDS011;31622;55.416;37.840;2023-05-24T08:07:29;46.75;;;40.63;;
45909;SDS011;31622;55.416;37.840;2023-05-24T08:09:55;46.00;;;38.70;;
45909;SDS011;31622;55.416;37.840;2023-05-24T08:12:21;45.55;;;38.22;;
45909;SDS011;31622;55.416;37.840;2023-05-24T08:14:47;32.17;;;28.00;;
45909;SDS011;31622;55.416;37.840;2023-05-24T08:17:12;28.08;;;23.23;;
45909;SDS011;31622;55.416;37.840;2023-05-24T08:19:38;44.47;;;32.33;;
45909;SDS011;31622;55.416;37.840;2023-05-24T08:22:04;37.10;;;27.20;;
45909;SDS011;31622;55.416;37.840;2023-05-24T08:24:30;33.60;;;23.38;;
45909;SDS011;31622;55.416;37.840;2023-05-24T08:26:56;54.22;;;31.80;;
45909;SDS011;31622;55.416;37.840;2023-05-24T08:29:22;41.33;;;26.25;;
45909;SDS011;31622;55.416;37.840;2023-05-24T08:31:48;40.17;;;25.95;;
45909;SDS011;31622;55.416;37.840;2023-05-24T08:34:14;33.53;;;19.35;;
45909;SDS011;31622;55.416;37.840;2023-05-24T08:36:40;36.85;;;23.15;;
45909;SDS011;31622;55.416;37.840;2023-05-24T08:39:08;39.90;;;24.83;;
45909;SDS011;31622;55.416;37.840;2023-05-24T08:41:34;20.77;;;15.02;;
45909;SDS011;31622;55.416;37.840;2023-05-24T08:44:06;22.58;;;11.85;;
45909;SDS011;31622;55.416;37.840;2023-05-24T08:46:35;20.80;;;10.68;;
45909;SDS011;31622;55.416;37.840;2023-05-24T08:49:02;14.68;;;10.10;;
45909;SDS011;31622;55.416;37.840;2023-05-24T08:51:28;19.02;;;12.23;;
45909;SDS011;31622;55.416;37.840;2023-05-24T08:53:56;19.33;;;12.07;;
45909;SDS011;31622;55.416;37.840;2023-05-24T08:56:23;19.67;;;11.20;;
45909;SDS011;31622;55.416;37.840;2023-05-24T08:58:51;17.95;;;12.00;;
45909;SDS011;31622;55.416;37.840;2023-05-24T09:01:17;19.92;;;10.88;;
45909;SDS011;31622;55.416;37.840;2023-05-24T09:03:44;14.38;;;9.23;;
45909;SDS011;31622;55.416;37.840;2023-05-24T09:06:11;11.45;;;7.00;;
45909;SDS011;31622;55.416;37.840;2023-05-24T09:08:38;12.52;;;7.70;;
45909;SDS011;31622;55.416;37.840;2023-05-24T09:11:04;11.18;;;6.88;;
45909;SDS011;31622;55.416;37.840;2023-05-24T09:13:32;12.05;;;8.60;;
45909;SDS011;31622;55.416;37.840;2023-05-24T09:15:59;13.82;;;8.85;;
45909;SDS011;31622;55.416;37.840;2023-05-24T09:18:25;13.10;;;8.05;;
45909;SDS011;31622;55.416;37.840;2023-05-24T09:20:51;13.30;;;8.38;;
45909;SDS011;31622;55.416;37.840;2023-05-24T09:23:17;10.73;;;7.22;;
45909;SDS011;31622;55.416;37.840;2023-05-24T09:25:43;10.73;;;7.00;;
45909;SDS011;31622;55.416;37.840;2023-05-24T09:28:11;8.88;;;6.00;;
45909;SDS011;31622;55.416;37.840;2023-05-24T09:30:43;10.02;;;6.07;;
45909;SDS011;31622;55.416;37.840;2023-05-24T09:33:10;10.93;;;5.38;;
45909;SDS011;31622;55.416;37.840;2023-05-24T09:35:38;8.25;;;4.75;;
45909;SDS011;31622;55.416;37.840;2023-05-24T09:38:14;8.13;;;4.18;;
45909;SDS011;31622;55.416;37.840;2023-05-24T09:40:42;9.85;;;3.97;;
45909;SDS011;31622;55.416;37.840;2023-05-24T09:43:09;6.75;;;3.70;;
45909;SDS011;31622;55.416;37.840;2023-05-24T09:45:41;7.82;;;3.47;;
45909;SDS011;31622;55.416;37.840;2023-05-24T09:48:14;9.05;;;4.10;;
45909;SDS011;31622;55.416;37.840;2023-05-24T09:50:44;8.10;;;4.05;;
45909;SDS011;31622;55.416;37.840;2023-05-24T09:53:23;7.22;;;4.03;;
45909;SDS011;31622;55.416;37.840;2023-05-24T09:55:49;6.85;;;3.97;;
45909;SDS011;31622;55.416;37.840;2023-05-24T09:58:15;6.97;;;4.07;;
45909;SDS011;31622;55.416;37.840;2023-05-24T10:00:41;7.68;;;4.20;;
45909;SDS011;31622;55.416;37.840;2023-05-24T10:03:08;7.28;;;4.10;;
45909;SDS011;31622;55.416;37.840;2023-05-24T10:08:11;6.78;;;3.78;;
45909;SDS011;31622;55.416;37.840;2023-05-24T10:10:38;7.57;;;3.80;;
45909;SDS011;31622;55.416;37.840;2023-05-24T10:13:04;6.47;;;3.53;;
45909;SDS011;31622;55.416;37.840;2023-05-24T10:15:29;6.50;;;3.90;;
45909;SDS011;31622;55.416;37.840;2023-05-24T10:17:56;7.70;;;3.33;;
45909;SDS011;31622;55.416;37.840;2023-05-24T10:20:22;9.00;;;3.83;;
45909;SDS011;31622;55.416;37.840;2023-05-24T10:22:53;7.30;;;4.00;;
45909;SDS011;31622;55.416;37.840;2023-05-24T10:25:22;6.13;;;3.80;;
45909;SDS011;31622;55.416;37.840;2023-05-24T10:27:53;6.63;;;3.88;;
45909;SDS011;31622;55.416;37.840;2023-05-24T10:30:30;7.03;;;4.38;;
45909;SDS011;31622;55.416;37.840;2023-05-24T10:33:02;8.85;;;4.50;;
45909;SDS011;31622;55.416;37.840;2023-05-24T10:35:29;8.57;;;4.10;;
45909;SDS011;31622;55.416;37.840;2023-05-24T10:37:55;7.60;;;4.20;;
45909;SDS011;31622;55.416;37.840;2023-05-24T10:40:21;8.50;;;3.85;;
45909;SDS011;31622;55.416;37.840;2023-05-24T10:42:50;12.35;;;4.10;;
45909;SDS011;31622;55.416;37.840;2023-05-24T10:45:29;6.53;;;3.60;;
45909;SDS011;31622;55.416;37.840;2023-05-24T10:50:42;7.07;;;3.67;;
45909;SDS011;31622;55.416;37.840;2023-05-24T10:53:12;6.55;;;4.38;;
45909;SDS011;31622;55.416;37.840;2023-05-24T10:55:57;4.57;;;3.58;;
45909;SDS011;31622;55.416;37.840;2023-05-24T11:00:59;10.15;;;4.80;;
45909;SDS011;31622;55.416;37.840;2023-05-24T11:03:31;7.43;;;3.83;;
45909;SDS011;31622;55.416;37.840;2023-05-24T11:05:57;6.47;;;4.32;;
45909;SDS011;31622;55.416;37.840;2023-05-24T11:13:35;12.00;;;4.97;;
45909;SDS011;31622;55.416;37.840;2023-05-24T11:16:01;10.93;;;5.20;;
45909;SDS011;31622;55.416;37.840;2023-05-24T11:18:27;51.78;;;12.18;;
45909;SDS011;31622;55.416;37.840;2023-05-24T11:20:53;37.05;;;10.20;;
45909;SDS011;31622;55.416;37.840;2023-05-24T11:23:20;86.45;;;20.05;;
45909;SDS011;31622;55.416;37.840;2023-05-24T11:25:46;63.70;;;15.30;;
45909;SDS011;31622;55.416;37.840;2023-05-24T11:28:12;65.47;;;16.05;;
45909;SDS011;31622;55.416;37.840;2023-05-24T11:30:45;71.95;;;17.65;;
45909;SDS011;31622;55.416;37.840;2023-05-24T11:35:40;67.53;;;16.63;;
45909;SDS011;31622;55.416;37.840;2023-05-24T11:38:13;33.08;;;10.20;;
45909;SDS011;31622;55.416;37.840;2023-05-24T11:40:42;41.92;;;12.05;;
45909;SDS011;31622;55.416;37.840;2023-05-24T11:43:12;38.85;;;11.43;;
45909;SDS011;31622;55.416;37.840;2023-05-24T11:45:45;38.97;;;10.93;;
45909;SDS011;31622;55.416;37.840;2023-05-24T11:48:13;26.33;;;9.20;;
45909;SDS011;31622;55.416;37.840;2023-05-24T11:50:40;20.80;;;7.55;;
45909;SDS011;31622;55.416;37.840;2023-05-24T11:53:10;30.65;;;8.82;;
45909;SDS011;31622;55.416;37.840;2023-05-24T11:55:37;31.63;;;10.10;;
45909;SDS011;31622;55.416;37.840;2023-05-24T11:58:10;27.67;;;8.75;;
45909;SDS011;31622;55.416;37.840;2023-05-24T12:00:49;19.88;;;8.18;;
45909;SDS011;31622;55.416;37.840;2023-05-24T12:03:15;19.00;;;8.00;;
45909;SDS011;31622;55.416;37.840;2023-05-24T12:05:41;16.95;;;7.85;;
45909;SDS011;31622;55.416;37.840;2023-05-24T12:08:11;20.15;;;7.53;;
45909;SDS011;31622;55.416;37.840;2023-05-24T12:10:40;15.95;;;7.30;;
45909;SDS011;31622;55.416;37.840;2023-05-24T12:13:12;17.08;;;6.82;;
45909;SDS011;31622;55.416;37.840;2023-05-24T12:15:50;16.90;;;7.03;;
45909;SDS011;31622;55.416;37.840;2023-05-24T12:18:18;12.02;;;6.65;;
45909;SDS011;31622;55.416;37.840;2023-05-24T12:20:47;12.98;;;6.63;;
45909;SDS011;31622;55.416;37.840;2023-05-24T12:23:13;16.40;;;6.68;;
45909;SDS011;31622;55.416;37.840;2023-05-24T12:25:39;10.68;;;5.85;;
45909;SDS011;31622;55.416;37.840;2023-05-24T12:28:05;13.10;;;6.32;;
45909;SDS011;31622;55.416;37.840;2023-05-24T12:30:31;11.30;;;6.32;;
45909;SDS011;31622;55.416;37.840;2023-05-24T12:32:57;11.93;;;5.93;;
45909;SDS011;31622;55.416;37.840;2023-05-24T12:35:23;7.40;;;5.25;;
45909;SDS011;31622;55.416;37.840;2023-05-24T12:37:49;13.80;;;6.30;;
45909;SDS011;31622;55.416;37.840;2023-05-24T12:40:18;9.93;;;6.10;;
45909;SDS011;31622;55.416;37.840;2023-05-24T12:42:48;12.50;;;6.00;;
45909;SDS011;31622;55.416;37.840;2023-05-24T12:45:16;10.43;;;5.95;;
45909;SDS011;31622;55.416;37.840;2023-05-24T12:47:51;12.93;;;6.88;;
45909;SDS011;31622;55.416;37.840;2023-05-24T12:50:21;10.98;;;5.85;;
45909;SDS011;31622;55.416;37.840;2023-05-24T12:52:48;12.25;;;5.60;;
45909;SDS011;31622;55.416;37.840;2023-05-24T12:55:23;12.15;;;6.20;;
45909;SDS011;31622;55.416;37.840;2023-05-24T12:57:53;9.52;;;5.88;;
45909;SDS011;31622;55.416;37.840;2023-05-24T13:00:20;11.73;;;5.63;;
45909;SDS011;31622;55.416;37.840;2023-05-24T13:02:47;10.63;;;5.70;;
45909;SDS011;31622;55.416;37.840;2023-05-24T13:05:13;11.82;;;6.32;;
45909;SDS011;31622;55.416;37.840;2023-05-24T13:07:43;8.75;;;5.75;;
45909;SDS011;31622;55.416;37.840;2023-05-24T13:10:10;9.07;;;5.70;;
45909;SDS011;31622;55.416;37.840;2023-05-24T13:12:36;10.20;;;5.60;;
45909;SDS011;31622;55.416;37.840;2023-05-24T13:15:03;10.45;;;5.70;;
45909;SDS011;31622;55.416;37.840;2023-05-24T13:17:29;8.55;;;5.32;;
45909;SDS011;31622;55.416;37.840;2023-05-24T13:19:55;11.00;;;5.90;;
45909;SDS011;31622;55.416;37.840;2023-05-24T13:22:22;8.18;;;5.88;;
45909;SDS011;31622;55.416;37.840;2023-05-24T13:24:48;8.18;;;5.47;;
45909;SDS011;31622;55.416;37.840;2023-05-24T13:27:14;8.20;;;5.10;;
45909;SDS011;31622;55.416;37.840;2023-05-24T13:29:40;8.57;;;4.97;;
45909;SDS011;31622;55.416;37.840;2023-05-24T13:32:06;8.75;;;5.47;;
45909;SDS011;31622;55.416;37.840;2023-05-24T13:34:31;11.10;;;6.05;;
45909;SDS011;31622;55.416;37.840;2023-05-24T13:36:57;9.30;;;5.95;;
45909;SDS011;31622;55.416;37.840;2023-05-24T13:39:26;11.07;;;5.47;;
45909;SDS011;31622;55.416;37.840;2023-05-24T13:41:52;9.27;;;4.97;;
45909;SDS011;31622;55.416;37.840;2023-05-24T13:44:18;8.80;;;5.10;;
45909;SDS011;31622;55.416;37.840;2023-05-24T13:46:44;8.38;;;4.78;;
45909;SDS011;31622;55.416;37.840;2023-05-24T13:49:10;7.93;;;4.55;;
45909;SDS011;31622;55.416;37.840;2023-05-24T13:51:36;9.55;;;4.63;;
45909;SDS011;31622;55.416;37.840;2023-05-24T13:54:02;13.52;;;4.10;;
45909;SDS011;31622;55.416;37.840;2023-05-24T13:56:29;7.35;;;4.75;;
45909;SDS011;31622;55.416;37.840;2023-05-24T13:58:57;11.02;;;4.55;;
45909;SDS011;31622;55.416;37.840;2023-05-24T14:01:23;9.43;;;4.10;;
45909;SDS011;31622;55.416;37.840;2023-05-24T14:03:49;7.43;;;3.88;;
45909;SDS011;31622;55.416;37.840;2023-05-24T14:06:16;9.35;;;4.57;;
45909;SDS011;31622;55.416;37.840;2023-05-24T14:08:42;5.35;;;3.78;;
45909;SDS011;31622;55.416;37.840;2023-05-24T14:11:08;9.80;;;4.10;;
45909;SDS011;31622;55.416;37.840;2023-05-24T14:13:35;5.10;;;3.60;;
45909;SDS011;31622;55.416;37.840;2023-05-24T14:16:00;7.00;;;3.90;;
45909;SDS011;31622;55.416;37.840;2023-05-24T14:18:26;6.20;;;3.47;;
45909;SDS011;31622;55.416;37.840;2023-05-24T14:20:52;4.82;;;3.63;;
45909;SDS011;31622;55.416;37.840;2023-05-24T14:23:17;7.20;;;4.10;;
45909;SDS011;31622;55.416;37.840;2023-05-24T14:25:43;10.88;;;4.03;;
45909;SDS011;31622;55.416;37.840;2023-05-24T14:28:11;10.68;;;4.10;;
45909;SDS011;31622;55.416;37.840;2023-05-24T14:30:36;5.78;;;3.67;;
45909;SDS011;31622;55.416;37.840;2023-05-24T14:33:02;7.13;;;4.35;;
45909;SDS011;31622;55.416;37.840;2023-05-24T14:35:30;8.35;;;4.15;;
45909;SDS011;31622;55.416;37.840;2023-05-24T14:38:02;7.30;;;3.80;;
45909;SDS011;31622;55.416;37.840;2023-05-24T14:40:29;5.00;;;3.75;;
45909;SDS011;31622;55.416;37.840;2023-05-24T14:42:56;6.90;;;3.85;;
45909;SDS011;31622;55.416;37.840;2023-05-24T14:45:22;7.10;;;3.95;;
45909;SDS011;31622;55.416;37.840;2023-05-24T14:47:48;7.40;;;3.80;;
45909;SDS011;31622;55.416;37.840;2023-05-24T14:50:14;8.13;;;3.65;;
45909;SDS011;31622;55.416;37.840;2023-05-24T14:52:40;7.18;;;3.70;;
45909;SDS011;31622;55.416;37.840;2023-05-24T14:55:05;5.93;;;3.78;;
45909;SDS011;31622;55.416;37.840;2023-05-24T14:57:32;6.70;;;3.92;;